sensor_id;sensor_type;location;lat;lon;timestamp;P1;durP1;ratioP1;P2;durP2;ratioP2
17482;SDS011;8858;52.308;20.994;2023-04-28T00:00:38;15.43;;;10.70;;
17482;SDS011;8858;52.308;20.994;2023-04-28T00:03:06;17.80;;;11.47;;
17482;SDS011;8858;52.308;20.994;2023-04-28T00:05:35;20.90;;;11.10;;
17482;SDS011;8858;52.308;20.994;2023-04-28T00:08:04;21.87;;;12.00;;
17482;SDS011;8858;52.308;20.994;2023-04-28T00:10:32;20.73;;;11.43;;
17482;SDS011;8858;52.308;20.994;2023-04-28T00:13:01;14.00;;;10.63;;
17482;SDS011;8858;52.308;20.994;2023-04-28T00:15:30;15.40;;;11.10;;
17482;SDS011;8858;52.308;20.994;2023-04-28T00:18:02;21.13;;;11.53;;
17482;SDS011;8858;52.308;20.994;2023-04-28T00:20:31;15.00;;;10.53;;
17482;SDS011;8858;52.308;20.994;2023-04-28T00:23:00;20.63;;;11.97;;
17482;SDS011;8858;52.308;20.994;2023-04-28T00:25:29;20.90;;;12.43;;
17482;SDS011;8858;52.308;20.994;2023-04-28T00:27:59;19.00;;;12.00;;
17482;SDS011;8858;52.308;20.994;2023-04-28T00:30:28;16.63;;;11.53;;
17482;SDS011;8858;52.308;20.994;2023-04-28T00:32:58;16.37;;;11.07;;
17482;SDS011;8858;52.308;20.994;2023-04-28T00:35:27;20.53;;;11.73;;
17482;SDS011;8858;52.308;20.994;2023-04-28T00:37:56;16.57;;;11.67;;
17482;SDS011;8858;52.308;20.994;2023-04-28T00:40:31;21.53;;;12.30;;
17482;SDS011;8858;52.308;20.994;2023-04-28T00:43:00;18.67;;;11.87;;
17482;SDS011;8858;52.308;20.994;2023-04-28T00:45:29;16.27;;;11.17;;
17482;SDS011;8858;52.308;20.994;2023-04-28T00:48:03;16.63;;;11.27;;
17482;SDS011;8858;52.308;20.994;2023-04-28T00:50:32;22.10;;;12.03;;
17482;SDS011;8858;52.308;20.994;2023-04-28T00:53:00;18.83;;;12.10;;
17482;SDS011;8858;52.308;20.994;2023-04-28T00:55:30;19.17;;;12.40;;
17482;SDS011;8858;52.308;20.994;2023-04-28T00:58:00;18.17;;;11.67;;
17482;SDS011;8858;52.308;20.994;2023-04-28T01:00:33;22.03;;;12.23;;
17482;SDS011;8858;52.308;20.994;2023-04-28T01:03:04;23.10;;;12.17;;
17482;SDS011;8858;52.308;20.994;2023-04-28T01:05:36;21.03;;;12.40;;
17482;SDS011;8858;52.308;20.994;2023-04-28T01:08:05;17.73;;;12.77;;
17482;SDS011;8858;52.308;20.994;2023-04-28T01:10:34;23.20;;;13.03;;
17482;SDS011;8858;52.308;20.994;2023-04-28T01:13:10;19.83;;;12.40;;
17482;SDS011;8858;52.308;20.994;2023-04-28T01:15:40;20.40;;;12.90;;
17482;SDS011;8858;52.308;20.994;2023-04-28T01:18:11;18.00;;;11.57;;
17482;SDS011;8858;52.308;20.994;2023-04-28T01:20:41;20.60;;;13.30;;
17482;SDS011;8858;52.308;20.994;2023-04-28T01:23:10;18.80;;;12.20;;
17482;SDS011;8858;52.308;20.994;2023-04-28T01:25:41;20.20;;;12.83;;
17482;SDS011;8858;52.308;20.994;2023-04-28T01:28:10;20.03;;;12.07;;
17482;SDS011;8858;52.308;20.994;2023-04-28T01:30:40;19.03;;;12.80;;
17482;SDS011;8858;52.308;20.994;2023-04-28T01:33:08;22.10;;;13.13;;
17482;SDS011;8858;52.308;20.994;2023-04-28T01:35:37;19.47;;;13.07;;
17482;SDS011;8858;52.308;20.994;2023-04-28T01:38:06;18.50;;;11.73;;
17482;SDS011;8858;52.308;20.994;2023-04-28T01:40:34;19.50;;;12.80;;
17482;SDS011;8858;52.308;20.994;2023-04-28T01:43:08;22.83;;;12.80;;
17482;SDS011;8858;52.308;20.994;2023-04-28T01:45:37;20.37;;;13.03;;
17482;SDS011;8858;52.308;20.994;2023-04-28T01:48:08;19.63;;;12.70;;
17482;SDS011;8858;52.308;20.994;2023-04-28T01:50:37;20.70;;;12.83;;
17482;SDS011;8858;52.308;20.994;2023-04-28T01:53:05;24.60;;;13.20;;
17482;SDS011;8858;52.308;20.994;2023-04-28T01:55:33;21.80;;;13.63;;
17482;SDS011;8858;52.308;20.994;2023-04-28T01:58:03;19.53;;;13.10;;
17482;SDS011;8858;52.308;20.994;2023-04-28T02:00:33;21.67;;;13.37;;
17482;SDS011;8858;52.308;20.994;2023-04-28T02:03:01;19.13;;;13.07;;
17482;SDS011;8858;52.308;20.994;2023-04-28T02:05:33;21.47;;;13.10;;
17482;SDS011;8858;52.308;20.994;2023-04-28T02:08:03;21.13;;;12.83;;
17482;SDS011;8858;52.308;20.994;2023-04-28T02:10:32;21.47;;;13.67;;
17482;SDS011;8858;52.308;20.994;2023-04-28T02:13:00;19.53;;;12.93;;
17482;SDS011;8858;52.308;20.994;2023-04-28T02:15:29;20.77;;;13.37;;
17482;SDS011;8858;52.308;20.994;2023-04-28T02:18:00;22.33;;;13.67;;
17482;SDS011;8858;52.308;20.994;2023-04-28T02:20:31;22.23;;;13.50;;
17482;SDS011;8858;52.308;20.994;2023-04-28T02:22:59;22.10;;;13.23;;
17482;SDS011;8858;52.308;20.994;2023-04-28T02:25:28;18.80;;;12.63;;
17482;SDS011;8858;52.308;20.994;2023-04-28T02:27:56;24.87;;;12.93;;
17482;SDS011;8858;52.308;20.994;2023-04-28T02:30:25;23.10;;;13.20;;
17482;SDS011;8858;52.308;20.994;2023-04-28T02:32:54;20.40;;;13.73;;
17482;SDS011;8858;52.308;20.994;2023-04-28T02:35:25;20.77;;;13.73;;
17482;SDS011;8858;52.308;20.994;2023-04-28T02:37:54;22.70;;;13.80;;
17482;SDS011;8858;52.308;20.994;2023-04-28T02:40:23;19.53;;;12.77;;
17482;SDS011;8858;52.308;20.994;2023-04-28T02:42:55;21.27;;;13.73;;
17482;SDS011;8858;52.308;20.994;2023-04-28T02:45:27;18.80;;;13.30;;
17482;SDS011;8858;52.308;20.994;2023-04-28T02:47:55;22.30;;;13.57;;
17482;SDS011;8858;52.308;20.994;2023-04-28T02:50:31;19.50;;;13.50;;
17482;SDS011;8858;52.308;20.994;2023-04-28T02:52:59;21.70;;;13.73;;
17482;SDS011;8858;52.308;20.994;2023-04-28T02:55:28;20.23;;;13.43;;
17482;SDS011;8858;52.308;20.994;2023-04-28T02:57:57;21.40;;;13.87;;
17482;SDS011;8858;52.308;20.994;2023-04-28T03:00:26;21.70;;;13.90;;
17482;SDS011;8858;52.308;20.994;2023-04-28T03:02:54;19.37;;;14.03;;
17482;SDS011;8858;52.308;20.994;2023-04-28T03:05:23;26.57;;;15.07;;
17482;SDS011;8858;52.308;20.994;2023-04-28T03:07:53;18.83;;;13.30;;
17482;SDS011;8858;52.308;20.994;2023-04-28T03:10:23;19.23;;;13.13;;
17482;SDS011;8858;52.308;20.994;2023-04-28T03:12:51;22.53;;;13.93;;
17482;SDS011;8858;52.308;20.994;2023-04-28T03:15:19;19.67;;;13.53;;
17482;SDS011;8858;52.308;20.994;2023-04-28T03:17:47;22.10;;;14.07;;
17482;SDS011;8858;52.308;20.994;2023-04-28T03:20:16;19.87;;;13.67;;
17482;SDS011;8858;52.308;20.994;2023-04-28T03:22:45;24.70;;;14.57;;
17482;SDS011;8858;52.308;20.994;2023-04-28T03:25:15;20.73;;;14.13;;
17482;SDS011;8858;52.308;20.994;2023-04-28T03:27:49;22.03;;;14.90;;
17482;SDS011;8858;52.308;20.994;2023-04-28T03:30:17;20.07;;;14.00;;
17482;SDS011;8858;52.308;20.994;2023-04-28T03:32:46;24.57;;;15.00;;
17482;SDS011;8858;52.308;20.994;2023-04-28T03:35:15;21.03;;;13.47;;
17482;SDS011;8858;52.308;20.994;2023-04-28T03:37:43;21.17;;;13.77;;
17482;SDS011;8858;52.308;20.994;2023-04-28T03:40:14;18.17;;;13.60;;
17482;SDS011;8858;52.308;20.994;2023-04-28T03:43:03;19.40;;;13.77;;
17482;SDS011;8858;52.308;20.994;2023-04-28T03:45:40;23.57;;;15.00;;
17482;SDS011;8858;52.308;20.994;2023-04-28T03:48:08;20.27;;;13.93;;
17482;SDS011;8858;52.308;20.994;2023-04-28T03:50:37;20.53;;;14.03;;
17482;SDS011;8858;52.308;20.994;2023-04-28T03:53:07;29.20;;;14.53;;
17482;SDS011;8858;52.308;20.994;2023-04-28T03:55:37;23.27;;;15.30;;
17482;SDS011;8858;52.308;20.994;2023-04-28T03:58:06;34.53;;;15.70;;
17482;SDS011;8858;52.308;20.994;2023-04-28T04:00:39;24.37;;;17.07;;
17482;SDS011;8858;52.308;20.994;2023-04-28T04:03:07;28.20;;;15.60;;
17482;SDS011;8858;52.308;20.994;2023-04-28T04:05:37;20.87;;;14.73;;
17482;SDS011;8858;52.308;20.994;2023-04-28T04:08:08;23.13;;;15.13;;
17482;SDS011;8858;52.308;20.994;2023-04-28T04:10:39;28.40;;;15.93;;
17482;SDS011;8858;52.308;20.994;2023-04-28T04:13:07;29.40;;;18.13;;
17482;SDS011;8858;52.308;20.994;2023-04-28T04:15:35;37.40;;;17.50;;
17482;SDS011;8858;52.308;20.994;2023-04-28T04:18:04;25.07;;;16.10;;
17482;SDS011;8858;52.308;20.994;2023-04-28T04:20:53;30.13;;;16.33;;
17482;SDS011;8858;52.308;20.994;2023-04-28T04:23:23;29.10;;;17.17;;
17482;SDS011;8858;52.308;20.994;2023-04-28T04:25:53;31.83;;;16.70;;
17482;SDS011;8858;52.308;20.994;2023-04-28T04:28:21;23.23;;;16.73;;
17482;SDS011;8858;52.308;20.994;2023-04-28T04:30:50;25.57;;;16.97;;
17482;SDS011;8858;52.308;20.994;2023-04-28T04:33:19;27.90;;;16.83;;
17482;SDS011;8858;52.308;20.994;2023-04-28T04:35:48;25.67;;;16.00;;
17482;SDS011;8858;52.308;20.994;2023-04-28T04:38:17;25.57;;;16.37;;
17482;SDS011;8858;52.308;20.994;2023-04-28T04:40:47;22.07;;;16.33;;
17482;SDS011;8858;52.308;20.994;2023-04-28T04:43:16;24.97;;;15.33;;
17482;SDS011;8858;52.308;20.994;2023-04-28T04:45:49;28.40;;;16.47;;
17482;SDS011;8858;52.308;20.994;2023-04-28T04:48:19;32.37;;;16.63;;
17482;SDS011;8858;52.308;20.994;2023-04-28T04:50:47;27.23;;;17.83;;
17482;SDS011;8858;52.308;20.994;2023-04-28T04:53:15;25.33;;;17.40;;
17482;SDS011;8858;52.308;20.994;2023-04-28T04:55:44;30.00;;;16.90;;
17482;SDS011;8858;52.308;20.994;2023-04-28T04:58:14;31.30;;;16.97;;
17482;SDS011;8858;52.308;20.994;2023-04-28T05:01:11;38.57;;;17.77;;
17482;SDS011;8858;52.308;20.994;2023-04-28T05:03:39;29.37;;;17.97;;
17482;SDS011;8858;52.308;20.994;2023-04-28T05:06:11;32.07;;;18.47;;
17482;SDS011;8858;52.308;20.994;2023-04-28T05:08:43;32.03;;;17.77;;
17482;SDS011;8858;52.308;20.994;2023-04-28T05:11:11;28.47;;;17.13;;
17482;SDS011;8858;52.308;20.994;2023-04-28T05:13:39;36.67;;;18.63;;
17482;SDS011;8858;52.308;20.994;2023-04-28T05:16:12;32.63;;;18.37;;
17482;SDS011;8858;52.308;20.994;2023-04-28T05:19:07;32.67;;;18.07;;
17482;SDS011;8858;52.308;20.994;2023-04-28T05:21:35;30.70;;;18.33;;
17482;SDS011;8858;52.308;20.994;2023-04-28T05:24:04;27.77;;;17.07;;
17482;SDS011;8858;52.308;20.994;2023-04-28T05:26:34;34.90;;;17.30;;
17482;SDS011;8858;52.308;20.994;2023-04-28T05:29:07;29.53;;;17.63;;
17482;SDS011;8858;52.308;20.994;2023-04-28T05:31:36;33.80;;;17.23;;
17482;SDS011;8858;52.308;20.994;2023-04-28T05:34:09;29.07;;;16.47;;
17482;SDS011;8858;52.308;20.994;2023-04-28T05:36:37;29.07;;;17.53;;
17482;SDS011;8858;52.308;20.994;2023-04-28T05:39:10;32.00;;;15.97;;
17482;SDS011;8858;52.308;20.994;2023-04-28T05:41:40;33.00;;;16.20;;
17482;SDS011;8858;52.308;20.994;2023-04-28T05:44:11;29.30;;;16.20;;
17482;SDS011;8858;52.308;20.994;2023-04-28T05:46:41;25.97;;;15.27;;
17482;SDS011;8858;52.308;20.994;2023-04-28T05:49:11;25.87;;;15.80;;
17482;SDS011;8858;52.308;20.994;2023-04-28T05:51:39;24.87;;;14.87;;
17482;SDS011;8858;52.308;20.994;2023-04-28T05:54:07;26.97;;;15.10;;
17482;SDS011;8858;52.308;20.994;2023-04-28T05:56:41;27.63;;;15.03;;
17482;SDS011;8858;52.308;20.994;2023-04-28T05:59:09;27.13;;;15.23;;
17482;SDS011;8858;52.308;20.994;2023-04-28T06:01:41;23.00;;;15.30;;
17482;SDS011;8858;52.308;20.994;2023-04-28T06:04:13;22.33;;;13.73;;
17482;SDS011;8858;52.308;20.994;2023-04-28T06:06:42;20.73;;;12.67;;
17482;SDS011;8858;52.308;20.994;2023-04-28T06:09:13;20.40;;;12.80;;
17482;SDS011;8858;52.308;20.994;2023-04-28T06:11:42;17.83;;;12.33;;
17482;SDS011;8858;52.308;20.994;2023-04-28T06:14:10;19.60;;;12.30;;
17482;SDS011;8858;52.308;20.994;2023-04-28T06:16:43;19.03;;;12.60;;
17482;SDS011;8858;52.308;20.994;2023-04-28T06:19:11;14.97;;;11.57;;
17482;SDS011;8858;52.308;20.994;2023-04-28T06:21:40;16.33;;;11.17;;
17482;SDS011;8858;52.308;20.994;2023-04-28T06:24:08;16.23;;;11.13;;
17482;SDS011;8858;52.308;20.994;2023-04-28T06:26:39;20.47;;;11.10;;
17482;SDS011;8858;52.308;20.994;2023-04-28T06:29:09;18.30;;;11.30;;
17482;SDS011;8858;52.308;20.994;2023-04-28T06:31:37;16.00;;;10.10;;
17482;SDS011;8858;52.308;20.994;2023-04-28T06:34:10;16.73;;;10.67;;
17482;SDS011;8858;52.308;20.994;2023-04-28T06:36:39;16.27;;;9.97;;
17482;SDS011;8858;52.308;20.994;2023-04-28T06:39:09;15.67;;;9.70;;
17482;SDS011;8858;52.308;20.994;2023-04-28T06:41:37;13.83;;;9.10;;
17482;SDS011;8858;52.308;20.994;2023-04-28T06:44:07;13.57;;;9.03;;
17482;SDS011;8858;52.308;20.994;2023-04-28T06:46:37;14.63;;;9.97;;
17482;SDS011;8858;52.308;20.994;2023-04-28T06:49:10;16.00;;;9.93;;
17482;SDS011;8858;52.308;20.994;2023-04-28T06:51:38;14.17;;;9.17;;
17482;SDS011;8858;52.308;20.994;2023-04-28T06:54:06;13.20;;;9.68;;
17482;SDS011;8858;52.308;20.994;2023-04-28T06:56:34;11.80;;;8.30;;
17482;SDS011;8858;52.308;20.994;2023-04-28T06:59:04;9.53;;;7.33;;
17482;SDS011;8858;52.308;20.994;2023-04-28T07:01:33;10.93;;;8.23;;
17482;SDS011;8858;52.308;20.994;2023-04-28T07:04:01;13.80;;;8.60;;
17482;SDS011;8858;52.308;20.994;2023-04-28T07:06:35;14.03;;;7.67;;
17482;SDS011;8858;52.308;20.994;2023-04-28T07:09:03;13.40;;;7.63;;
17482;SDS011;8858;52.308;20.994;2023-04-28T07:11:33;15.60;;;8.50;;
17482;SDS011;8858;52.308;20.994;2023-04-28T07:14:01;13.50;;;7.77;;
17482;SDS011;8858;52.308;20.994;2023-04-28T07:16:30;12.73;;;7.63;;
17482;SDS011;8858;52.308;20.994;2023-04-28T07:19:01;10.17;;;6.97;;
17482;SDS011;8858;52.308;20.994;2023-04-28T07:21:31;11.57;;;7.77;;
17482;SDS011;8858;52.308;20.994;2023-04-28T07:24:01;9.00;;;6.23;;
17482;SDS011;8858;52.308;20.994;2023-04-28T07:26:29;11.03;;;5.73;;
17482;SDS011;8858;52.308;20.994;2023-04-28T07:28:59;7.33;;;4.90;;
17482;SDS011;8858;52.308;20.994;2023-04-28T07:31:28;6.13;;;4.90;;
17482;SDS011;8858;52.308;20.994;2023-04-28T07:33:56;10.97;;;5.20;;
17482;SDS011;8858;52.308;20.994;2023-04-28T07:36:24;8.23;;;4.93;;
17482;SDS011;8858;52.308;20.994;2023-04-28T07:38:53;10.00;;;5.17;;
17482;SDS011;8858;52.308;20.994;2023-04-28T07:41:22;7.37;;;4.90;;
17482;SDS011;8858;52.308;20.994;2023-04-28T07:43:56;6.83;;;4.60;;
17482;SDS011;8858;52.308;20.994;2023-04-28T07:46:24;5.00;;;3.70;;
17482;SDS011;8858;52.308;20.994;2023-04-28T07:48:56;5.03;;;4.03;;
17482;SDS011;8858;52.308;20.994;2023-04-28T07:51:25;5.83;;;4.10;;
17482;SDS011;8858;52.308;20.994;2023-04-28T07:53:54;9.53;;;4.57;;
17482;SDS011;8858;52.308;20.994;2023-04-28T07:56:27;4.27;;;2.43;;
17482;SDS011;8858;52.308;20.994;2023-04-28T07:58:55;5.37;;;3.13;;
17482;SDS011;8858;52.308;20.994;2023-04-28T08:01:25;6.53;;;3.07;;
17482;SDS011;8858;52.308;20.994;2023-04-28T08:03:54;5.23;;;3.20;;
17482;SDS011;8858;52.308;20.994;2023-04-28T08:06:23;7.47;;;3.70;;
17482;SDS011;8858;52.308;20.994;2023-04-28T08:08:53;5.80;;;3.73;;
17482;SDS011;8858;52.308;20.994;2023-04-28T08:11:22;4.60;;;2.30;;
17482;SDS011;8858;52.308;20.994;2023-04-28T08:13:54;3.33;;;1.88;;
17482;SDS011;8858;52.308;20.994;2023-04-28T08:16:27;4.20;;;1.90;;
17482;SDS011;8858;52.308;20.994;2023-04-28T08:18:55;2.30;;;2.10;;
17482;SDS011;8858;52.308;20.994;2023-04-28T08:21:24;3.67;;;2.20;;
17482;SDS011;8858;52.308;20.994;2023-04-28T08:23:55;2.83;;;2.23;;
17482;SDS011;8858;52.308;20.994;2023-04-28T08:26:24;6.23;;;2.10;;
17482;SDS011;8858;52.308;20.994;2023-04-28T08:28:53;3.13;;;2.23;;
17482;SDS011;8858;52.308;20.994;2023-04-28T08:31:22;5.63;;;2.17;;
17482;SDS011;8858;52.308;20.994;2023-04-28T08:33:50;6.27;;;2.60;;
17482;SDS011;8858;52.308;20.994;2023-04-28T08:36:20;4.83;;;1.80;;
17482;SDS011;8858;52.308;20.994;2023-04-28T08:38:50;5.33;;;2.67;;
17482;SDS011;8858;52.308;20.994;2023-04-28T08:41:20;4.67;;;2.23;;
17482;SDS011;8858;52.308;20.994;2023-04-28T08:43:48;2.53;;;2.17;;
17482;SDS011;8858;52.308;20.994;2023-04-28T08:46:19;4.27;;;2.00;;
17482;SDS011;8858;52.308;20.994;2023-04-28T08:48:51;5.37;;;3.07;;
17482;SDS011;8858;52.308;20.994;2023-04-28T08:51:26;8.97;;;6.00;;
17482;SDS011;8858;52.308;20.994;2023-04-28T08:54:01;2.90;;;2.20;;
17482;SDS011;8858;52.308;20.994;2023-04-28T08:56:50;4.50;;;2.07;;
17482;SDS011;8858;52.308;20.994;2023-04-28T08:59:22;2.53;;;1.67;;
17482;SDS011;8858;52.308;20.994;2023-04-28T09:01:53;1.83;;;1.30;;
17482;SDS011;8858;52.308;20.994;2023-04-28T09:04:22;2.97;;;1.50;;
17482;SDS011;8858;52.308;20.994;2023-04-28T09:06:51;3.30;;;1.60;;
17482;SDS011;8858;52.308;20.994;2023-04-28T09:09:21;5.37;;;2.00;;
17482;SDS011;8858;52.308;20.994;2023-04-28T09:11:51;2.60;;;1.30;;
17482;SDS011;8858;52.308;20.994;2023-04-28T09:14:21;3.33;;;1.60;;
17482;SDS011;8858;52.308;20.994;2023-04-28T09:16:50;2.93;;;1.87;;
17482;SDS011;8858;52.308;20.994;2023-04-28T09:19:20;4.73;;;1.87;;
17482;SDS011;8858;52.308;20.994;2023-04-28T09:21:50;2.50;;;1.90;;
17482;SDS011;8858;52.308;20.994;2023-04-28T09:24:24;2.77;;;1.87;;
17482;SDS011;8858;52.308;20.994;2023-04-28T09:26:57;4.63;;;2.60;;
17482;SDS011;8858;52.308;20.994;2023-04-28T09:29:25;3.77;;;2.03;;
17482;SDS011;8858;52.308;20.994;2023-04-28T09:31:53;6.77;;;2.20;;
17482;SDS011;8858;52.308;20.994;2023-04-28T09:34:43;2.17;;;2.00;;
17482;SDS011;8858;52.308;20.994;2023-04-28T09:37:15;3.80;;;2.00;;
17482;SDS011;8858;52.308;20.994;2023-04-28T09:39:48;2.60;;;2.40;;
17482;SDS011;8858;52.308;20.994;2023-04-28T09:42:29;3.63;;;2.40;;
17482;SDS011;8858;52.308;20.994;2023-04-28T09:45:00;3.33;;;2.40;;
17482;SDS011;8858;52.308;20.994;2023-04-28T09:47:31;2.87;;;2.40;;
17482;SDS011;8858;52.308;20.994;2023-04-28T09:50:06;5.20;;;2.20;;
17482;SDS011;8858;52.308;20.994;2023-04-28T09:52:38;5.70;;;2.63;;
17482;SDS011;8858;52.308;20.994;2023-04-28T09:55:12;2.77;;;2.27;;
17482;SDS011;8858;52.308;20.994;2023-04-28T09:57:40;3.60;;;2.27;;
17482;SDS011;8858;52.308;20.994;2023-04-28T10:00:16;4.23;;;2.30;;
17482;SDS011;8858;52.308;20.994;2023-04-28T10:02:45;6.43;;;2.63;;
17482;SDS011;8858;52.308;20.994;2023-04-28T10:05:18;4.23;;;2.63;;
17482;SDS011;8858;52.308;20.994;2023-04-28T10:07:50;5.07;;;2.20;;
17482;SDS011;8858;52.308;20.994;2023-04-28T10:10:20;3.47;;;2.20;;
17482;SDS011;8858;52.308;20.994;2023-04-28T10:12:50;3.00;;;2.00;;
17482;SDS011;8858;52.308;20.994;2023-04-28T10:15:18;4.33;;;2.47;;
17482;SDS011;8858;52.308;20.994;2023-04-28T10:17:47;5.00;;;2.17;;
17482;SDS011;8858;52.308;20.994;2023-04-28T10:20:19;6.43;;;2.80;;
17482;SDS011;8858;52.308;20.994;2023-04-28T10:22:51;6.07;;;3.33;;
17482;SDS011;8858;52.308;20.994;2023-04-28T10:25:28;4.80;;;2.70;;
17482;SDS011;8858;52.308;20.994;2023-04-28T10:27:59;4.27;;;3.00;;
17482;SDS011;8858;52.308;20.994;2023-04-28T10:30:31;9.17;;;3.30;;
17482;SDS011;8858;52.308;20.994;2023-04-28T10:35:54;3.83;;;2.60;;
17482;SDS011;8858;52.308;20.994;2023-04-28T10:38:28;3.93;;;2.47;;
17482;SDS011;8858;52.308;20.994;2023-04-28T10:40:56;6.50;;;3.03;;
17482;SDS011;8858;52.308;20.994;2023-04-28T10:43:37;4.50;;;2.90;;
17482;SDS011;8858;52.308;20.994;2023-04-28T10:46:06;5.70;;;2.60;;
17482;SDS011;8858;52.308;20.994;2023-04-28T10:48:52;4.67;;;2.73;;
17482;SDS011;8858;52.308;20.994;2023-04-28T10:51:23;3.77;;;2.43;;
17482;SDS011;8858;52.308;20.994;2023-04-28T10:54:08;4.40;;;2.70;;
17482;SDS011;8858;52.308;20.994;2023-04-28T10:59:47;4.17;;;2.83;;
17482;SDS011;8858;52.308;20.994;2023-04-28T11:05:11;6.90;;;3.20;;
17482;SDS011;8858;52.308;20.994;2023-04-28T11:13:49;3.70;;;2.70;;
17482;SDS011;8858;52.308;20.994;2023-04-28T11:16:18;3.07;;;2.77;;
17482;SDS011;8858;52.308;20.994;2023-04-28T11:18:59;3.10;;;2.40;;
17482;SDS011;8858;52.308;20.994;2023-04-28T11:21:32;3.30;;;2.60;;
17482;SDS011;8858;52.308;20.994;2023-04-28T11:24:00;8.00;;;2.53;;
17482;SDS011;8858;52.308;20.994;2023-04-28T11:26:37;4.23;;;2.47;;
17482;SDS011;8858;52.308;20.994;2023-04-28T11:29:06;3.07;;;2.43;;
17482;SDS011;8858;52.308;20.994;2023-04-28T11:31:35;9.73;;;2.40;;
17482;SDS011;8858;52.308;20.994;2023-04-28T11:34:04;4.97;;;3.07;;
17482;SDS011;8858;52.308;20.994;2023-04-28T11:36:38;5.53;;;2.80;;
17482;SDS011;8858;52.308;20.994;2023-04-28T11:39:07;3.63;;;2.77;;
17482;SDS011;8858;52.308;20.994;2023-04-28T11:41:38;3.77;;;2.70;;
17482;SDS011;8858;52.308;20.994;2023-04-28T11:47:03;3.07;;;2.30;;
17482;SDS011;8858;52.308;20.994;2023-04-28T11:49:43;5.83;;;2.80;;
17482;SDS011;8858;52.308;20.994;2023-04-28T11:52:13;3.87;;;2.20;;
17482;SDS011;8858;52.308;20.994;2023-04-28T11:54:51;8.83;;;3.27;;
17482;SDS011;8858;52.308;20.994;2023-04-28T11:57:22;3.67;;;2.90;;
17482;SDS011;8858;52.308;20.994;2023-04-28T12:03:08;3.17;;;2.37;;
17482;SDS011;8858;52.308;20.994;2023-04-28T12:05:42;4.93;;;2.93;;
17482;SDS011;8858;52.308;20.994;2023-04-28T12:08:12;4.43;;;2.60;;
17482;SDS011;8858;52.308;20.994;2023-04-28T12:10:41;4.17;;;2.90;;
17482;SDS011;8858;52.308;20.994;2023-04-28T12:13:15;2.90;;;2.57;;
17482;SDS011;8858;52.308;20.994;2023-04-28T12:15:43;3.90;;;2.73;;
17482;SDS011;8858;52.308;20.994;2023-04-28T12:18:14;6.03;;;3.07;;
17482;SDS011;8858;52.308;20.994;2023-04-28T12:20:46;11.77;;;2.97;;
17482;SDS011;8858;52.308;20.994;2023-04-28T12:23:27;3.37;;;2.63;;
17482;SDS011;8858;52.308;20.994;2023-04-28T12:25:57;2.97;;;2.50;;
17482;SDS011;8858;52.308;20.994;2023-04-28T12:28:36;5.50;;;3.00;;
17482;SDS011;8858;52.308;20.994;2023-04-28T12:31:05;3.13;;;2.50;;
17482;SDS011;8858;52.308;20.994;2023-04-28T12:33:38;4.30;;;2.53;;
17482;SDS011;8858;52.308;20.994;2023-04-28T12:36:06;5.50;;;2.60;;
17482;SDS011;8858;52.308;20.994;2023-04-28T12:38:35;2.90;;;2.47;;
17482;SDS011;8858;52.308;20.994;2023-04-28T12:41:14;7.23;;;2.63;;
17482;SDS011;8858;52.308;20.994;2023-04-28T12:43:43;6.70;;;2.70;;
17482;SDS011;8858;52.308;20.994;2023-04-28T12:46:12;2.97;;;2.70;;
17482;SDS011;8858;52.308;20.994;2023-04-28T12:48:42;4.57;;;2.55;;
17482;SDS011;8858;52.308;20.994;2023-04-28T12:51:15;5.57;;;3.10;;
17482;SDS011;8858;52.308;20.994;2023-04-28T12:53:43;7.18;;;2.92;;
17482;SDS011;8858;52.308;20.994;2023-04-28T12:56:12;4.45;;;3.10;;
17482;SDS011;8858;52.308;20.994;2023-04-28T12:58:41;5.45;;;3.00;;
17482;SDS011;8858;52.308;20.994;2023-04-28T13:01:10;5.43;;;3.03;;
17482;SDS011;8858;52.308;20.994;2023-04-28T13:03:38;6.80;;;3.10;;
17482;SDS011;8858;52.308;20.994;2023-04-28T13:06:08;4.93;;;2.85;;
17482;SDS011;8858;52.308;20.994;2023-04-28T13:08:36;3.78;;;2.80;;
17482;SDS011;8858;52.308;20.994;2023-04-28T13:11:05;5.70;;;2.75;;
17482;SDS011;8858;52.308;20.994;2023-04-28T13:13:48;6.47;;;2.92;;
17482;SDS011;8858;52.308;20.994;2023-04-28T13:16:19;8.65;;;3.92;;
17482;SDS011;8858;52.308;20.994;2023-04-28T13:18:51;6.95;;;3.03;;
17482;SDS011;8858;52.308;20.994;2023-04-28T13:21:19;10.95;;;2.90;;
17482;SDS011;8858;52.308;20.994;2023-04-28T13:23:49;6.63;;;3.30;;
17482;SDS011;8858;52.308;20.994;2023-04-28T13:26:17;4.45;;;3.25;;
17482;SDS011;8858;52.308;20.994;2023-04-28T13:28:46;5.35;;;3.08;;
17482;SDS011;8858;52.308;20.994;2023-04-28T13:31:14;4.15;;;3.20;;
17482;SDS011;8858;52.308;20.994;2023-04-28T13:33:48;6.30;;;3.67;;
17482;SDS011;8858;52.308;20.994;2023-04-28T13:36:16;5.03;;;2.88;;
17482;SDS011;8858;52.308;20.994;2023-04-28T13:38:44;4.72;;;3.35;;
17482;SDS011;8858;52.308;20.994;2023-04-28T13:41:14;5.07;;;3.50;;
17482;SDS011;8858;52.308;20.994;2023-04-28T13:43:43;4.45;;;3.00;;
17482;SDS011;8858;52.308;20.994;2023-04-28T13:46:11;5.35;;;3.15;;
17482;SDS011;8858;52.308;20.994;2023-04-28T13:48:40;3.65;;;3.25;;
17482;SDS011;8858;52.308;20.994;2023-04-28T13:51:09;3.80;;;3.40;;
17482;SDS011;8858;52.308;20.994;2023-04-28T13:53:37;5.07;;;3.55;;
17482;SDS011;8858;52.308;20.994;2023-04-28T13:56:06;5.00;;;3.58;;
17482;SDS011;8858;52.308;20.994;2023-04-28T13:58:38;5.75;;;3.92;;
17482;SDS011;8858;52.308;20.994;2023-04-28T14:01:07;4.30;;;3.88;;
17482;SDS011;8858;52.308;20.994;2023-04-28T14:03:35;7.13;;;3.65;;
17482;SDS011;8858;52.308;20.994;2023-04-28T14:06:03;4.90;;;3.45;;
17482;SDS011;8858;52.308;20.994;2023-04-28T14:08:35;7.93;;;3.28;;
17482;SDS011;8858;52.308;20.994;2023-04-28T14:11:10;4.93;;;3.35;;
17482;SDS011;8858;52.308;20.994;2023-04-28T14:13:38;4.10;;;3.35;;
17482;SDS011;8858;52.308;20.994;2023-04-28T14:16:08;6.38;;;4.05;;
17482;SDS011;8858;52.308;20.994;2023-04-28T14:18:36;7.80;;;3.40;;
17482;SDS011;8858;52.308;20.994;2023-04-28T14:21:04;4.30;;;3.58;;
17482;SDS011;8858;52.308;20.994;2023-04-28T14:23:35;5.00;;;3.45;;
17482;SDS011;8858;52.308;20.994;2023-04-28T14:26:05;5.95;;;3.65;;
17482;SDS011;8858;52.308;20.994;2023-04-28T14:28:34;5.10;;;3.53;;
17482;SDS011;8858;52.308;20.994;2023-04-28T14:31:03;4.43;;;3.45;;
17482;SDS011;8858;52.308;20.994;2023-04-28T14:33:34;6.68;;;3.20;;
17482;SDS011;8858;52.308;20.994;2023-04-28T14:36:03;4.85;;;3.45;;
17482;SDS011;8858;52.308;20.994;2023-04-28T14:38:32;5.50;;;3.30;;
17482;SDS011;8858;52.308;20.994;2023-04-28T14:43:54;4.10;;;3.50;;
17482;SDS011;8858;52.308;20.994;2023-04-28T14:46:23;5.85;;;3.78;;
17482;SDS011;8858;52.308;20.994;2023-04-28T14:48:53;4.70;;;3.13;;
17482;SDS011;8858;52.308;20.994;2023-04-28T14:51:21;3.72;;;3.35;;
17482;SDS011;8858;52.308;20.994;2023-04-28T14:53:49;5.57;;;3.33;;
17482;SDS011;8858;52.308;20.994;2023-04-28T14:56:17;4.85;;;3.97;;
17482;SDS011;8858;52.308;20.994;2023-04-28T14:58:47;6.03;;;3.72;;
17482;SDS011;8858;52.308;20.994;2023-04-28T15:01:16;7.15;;;3.40;;
17482;SDS011;8858;52.308;20.994;2023-04-28T15:03:44;5.78;;;3.30;;
17482;SDS011;8858;52.308;20.994;2023-04-28T15:06:14;5.13;;;3.70;;
17482;SDS011;8858;52.308;20.994;2023-04-28T15:08:42;4.93;;;3.80;;
17482;SDS011;8858;52.308;20.994;2023-04-28T15:11:14;6.75;;;3.90;;
17482;SDS011;8858;52.308;20.994;2023-04-28T15:13:42;5.90;;;3.60;;
17482;SDS011;8858;52.308;20.994;2023-04-28T15:16:12;4.35;;;3.80;;
17482;SDS011;8858;52.308;20.994;2023-04-28T15:18:43;7.35;;;3.80;;